sensor_id;sensor_type;location;lat;lon;timestamp;P1;durP1;ratioP1;P2;durP2;ratioP2
20956;SDS011;10637;47.970;7.830;2023-04-24T00:02:13;7.10;;;2.30;;
20956;SDS011;10637;47.970;7.830;2023-04-24T00:07:15;6.40;;;2.03;;
20956;SDS011;10637;47.970;7.830;2023-04-24T00:12:17;7.33;;;2.20;;
20956;SDS011;10637;47.970;7.830;2023-04-24T00:17:19;5.37;;;2.10;;
20956;SDS011;10637;47.970;7.830;2023-04-24T00:22:21;5.27;;;2.10;;
20956;SDS011;10637;47.970;7.830;2023-04-24T00:27:23;7.53;;;2.40;;
20956;SDS011;10637;47.970;7.830;2023-04-24T00:32:25;5.00;;;1.90;;
20956;SDS011;10637;47.970;7.830;2023-04-24T00:37:27;4.90;;;1.97;;
20956;SDS011;10637;47.970;7.830;2023-04-24T00:42:29;6.90;;;2.13;;
20956;SDS011;10637;47.970;7.830;2023-04-24T00:47:32;10.73;;;2.50;;
20956;SDS011;10637;47.970;7.830;2023-04-24T00:52:34;5.93;;;2.00;;
20956;SDS011;10637;47.970;7.830;2023-04-24T00:57:37;6.83;;;2.10;;
20956;SDS011;10637;47.970;7.830;2023-04-24T01:02:39;6.07;;;2.00;;
20956;SDS011;10637;47.970;7.830;2023-04-24T01:07:47;5.10;;;1.90;;
20956;SDS011;10637;47.970;7.830;2023-04-24T01:12:50;7.60;;;2.30;;
20956;SDS011;10637;47.970;7.830;2023-04-24T01:17:52;5.50;;;2.20;;
20956;SDS011;10637;47.970;7.830;2023-04-24T01:22:54;7.30;;;2.40;;
20956;SDS011;10637;47.970;7.830;2023-04-24T01:27:57;5.53;;;2.10;;
20956;SDS011;10637;47.970;7.830;2023-04-24T01:33:00;5.37;;;2.00;;
20956;SDS011;10637;47.970;7.830;2023-04-24T01:38:02;7.23;;;2.40;;
20956;SDS011;10637;47.970;7.830;2023-04-24T01:43:04;7.90;;;2.30;;
20956;SDS011;10637;47.970;7.830;2023-04-24T01:48:06;6.67;;;2.10;;
20956;SDS011;10637;47.970;7.830;2023-04-24T01:53:08;6.80;;;2.10;;
20956;SDS011;10637;47.970;7.830;2023-04-24T01:58:10;8.07;;;2.60;;
20956;SDS011;10637;47.970;7.830;2023-04-24T02:03:12;6.37;;;2.10;;
20956;SDS011;10637;47.970;7.830;2023-04-24T02:08:14;8.20;;;2.43;;
20956;SDS011;10637;47.970;7.830;2023-04-24T02:13:15;7.53;;;2.47;;
20956;SDS011;10637;47.970;7.830;2023-04-24T02:18:17;6.90;;;2.40;;
20956;SDS011;10637;47.970;7.830;2023-04-24T02:23:19;8.80;;;2.40;;
20956;SDS011;10637;47.970;7.830;2023-04-24T02:28:21;11.10;;;2.87;;
20956;SDS011;10637;47.970;7.830;2023-04-24T02:33:22;8.33;;;2.50;;
20956;SDS011;10637;47.970;7.830;2023-04-24T02:38:24;7.63;;;2.50;;
20956;SDS011;10637;47.970;7.830;2023-04-24T02:43:26;6.50;;;2.30;;
20956;SDS011;10637;47.970;7.830;2023-04-24T02:48:27;8.80;;;2.40;;
20956;SDS011;10637;47.970;7.830;2023-04-24T02:53:29;8.03;;;2.60;;
20956;SDS011;10637;47.970;7.830;2023-04-24T02:58:31;6.57;;;2.30;;
20956;SDS011;10637;47.970;7.830;2023-04-24T03:03:33;9.30;;;2.40;;
20956;SDS011;10637;47.970;7.830;2023-04-24T03:08:35;7.07;;;2.50;;
20956;SDS011;10637;47.970;7.830;2023-04-24T03:13:37;6.63;;;2.60;;
20956;SDS011;10637;47.970;7.830;2023-04-24T03:18:39;7.90;;;2.80;;
20956;SDS011;10637;47.970;7.830;2023-04-24T03:23:41;9.83;;;2.30;;
20956;SDS011;10637;47.970;7.830;2023-04-24T03:28:42;6.80;;;2.40;;
20956;SDS011;10637;47.970;7.830;2023-04-24T03:33:44;7.60;;;2.60;;
20956;SDS011;10637;47.970;7.830;2023-04-24T03:38:46;10.07;;;2.80;;
20956;SDS011;10637;47.970;7.830;2023-04-24T03:43:48;7.50;;;2.47;;
20956;SDS011;10637;47.970;7.830;2023-04-24T03:48:50;6.80;;;2.50;;
20956;SDS011;10637;47.970;7.830;2023-04-24T03:53:51;8.10;;;2.73;;
20956;SDS011;10637;47.970;7.830;2023-04-24T03:58:53;6.20;;;2.50;;
20956;SDS011;10637;47.970;7.830;2023-04-24T04:03:55;6.93;;;2.83;;
20956;SDS011;10637;47.970;7.830;2023-04-24T04:08:57;7.23;;;3.10;;
20956;SDS011;10637;47.970;7.830;2023-04-24T04:13:59;8.57;;;3.40;;
20956;SDS011;10637;47.970;7.830;2023-04-24T04:19:02;7.30;;;3.17;;
20956;SDS011;10637;47.970;7.830;2023-04-24T04:24:04;9.43;;;3.20;;
20956;SDS011;10637;47.970;7.830;2023-04-24T04:29:06;8.33;;;3.73;;
20956;SDS011;10637;47.970;7.830;2023-04-24T04:34:08;8.67;;;3.90;;
20956;SDS011;10637;47.970;7.830;2023-04-24T04:39:10;8.20;;;3.50;;
20956;SDS011;10637;47.970;7.830;2023-04-24T04:44:12;7.47;;;3.20;;
20956;SDS011;10637;47.970;7.830;2023-04-24T04:49:13;7.27;;;3.47;;
20956;SDS011;10637;47.970;7.830;2023-04-24T04:54:17;11.10;;;3.53;;
20956;SDS011;10637;47.970;7.830;2023-04-24T04:59:19;9.30;;;3.30;;
20956;SDS011;10637;47.970;7.830;2023-04-24T05:04:21;9.37;;;3.50;;
20956;SDS011;10637;47.970;7.830;2023-04-24T05:09:23;9.03;;;3.60;;
20956;SDS011;10637;47.970;7.830;2023-04-24T05:14:28;8.53;;;3.73;;
20956;SDS011;10637;47.970;7.830;2023-04-24T05:19:30;7.83;;;3.43;;
20956;SDS011;10637;47.970;7.830;2023-04-24T05:24:34;8.97;;;4.23;;
20956;SDS011;10637;47.970;7.830;2023-04-24T05:29:35;7.77;;;3.33;;
20956;SDS011;10637;47.970;7.830;2023-04-24T05:34:37;11.57;;;3.90;;
20956;SDS011;10637;47.970;7.830;2023-04-24T05:39:39;9.93;;;4.07;;
20956;SDS011;10637;47.970;7.830;2023-04-24T05:44:42;9.47;;;3.80;;
20956;SDS011;10637;47.970;7.830;2023-04-24T05:49:44;8.23;;;4.17;;
20956;SDS011;10637;47.970;7.830;2023-04-24T05:54:46;8.63;;;4.10;;
20956;SDS011;10637;47.970;7.830;2023-04-24T05:59:48;8.87;;;3.90;;
20956;SDS011;10637;47.970;7.830;2023-04-24T06:04:50;10.17;;;4.40;;
20956;SDS011;10637;47.970;7.830;2023-04-24T06:09:52;8.93;;;4.30;;
20956;SDS011;10637;47.970;7.830;2023-04-24T06:14:53;9.20;;;4.30;;
20956;SDS011;10637;47.970;7.830;2023-04-24T06:19:56;10.37;;;4.03;;
20956;SDS011;10637;47.970;7.830;2023-04-24T06:24:59;12.83;;;4.10;;
20956;SDS011;10637;47.970;7.830;2023-04-24T06:30:02;9.27;;;4.17;;
20956;SDS011;10637;47.970;7.830;2023-04-24T06:35:04;11.07;;;4.63;;
20956;SDS011;10637;47.970;7.830;2023-04-24T06:40:08;9.57;;;4.50;;
20956;SDS011;10637;47.970;7.830;2023-04-24T06:45:11;9.83;;;4.27;;
20956;SDS011;10637;47.970;7.830;2023-04-24T06:50:12;11.23;;;4.40;;
20956;SDS011;10637;47.970;7.830;2023-04-24T06:55:14;9.53;;;4.50;;
20956;SDS011;10637;47.970;7.830;2023-04-24T07:00:17;8.43;;;3.90;;
20956;SDS011;10637;47.970;7.830;2023-04-24T07:05:19;8.67;;;4.13;;
20956;SDS011;10637;47.970;7.830;2023-04-24T07:10:21;8.47;;;3.67;;
20956;SDS011;10637;47.970;7.830;2023-04-24T07:15:23;9.93;;;3.80;;
20956;SDS011;10637;47.970;7.830;2023-04-24T07:20:25;9.10;;;3.87;;
20956;SDS011;10637;47.970;7.830;2023-04-24T07:25:27;10.20;;;3.70;;
20956;SDS011;10637;47.970;7.830;2023-04-24T07:30:28;9.13;;;3.70;;
20956;SDS011;10637;47.970;7.830;2023-04-24T07:35:30;7.43;;;3.43;;
20956;SDS011;10637;47.970;7.830;2023-04-24T07:40:35;8.47;;;3.40;;
20956;SDS011;10637;47.970;7.830;2023-04-24T07:45:36;8.00;;;3.10;;
20956;SDS011;10637;47.970;7.830;2023-04-24T07:50:38;8.77;;;3.53;;
20956;SDS011;10637;47.970;7.830;2023-04-24T07:55:40;8.03;;;3.20;;
20956;SDS011;10637;47.970;7.830;2023-04-24T08:00:42;7.13;;;3.10;;
20956;SDS011;10637;47.970;7.830;2023-04-24T08:05:44;9.63;;;3.60;;
20956;SDS011;10637;47.970;7.830;2023-04-24T08:10:45;10.03;;;3.80;;
20956;SDS011;10637;47.970;7.830;2023-04-24T08:15:47;8.27;;;3.80;;
20956;SDS011;10637;47.970;7.830;2023-04-24T08:20:49;11.10;;;3.73;;
20956;SDS011;10637;47.970;7.830;2023-04-24T08:25:51;12.00;;;3.90;;
20956;SDS011;10637;47.970;7.830;2023-04-24T08:30:53;11.73;;;3.90;;
20956;SDS011;10637;47.970;7.830;2023-04-24T08:35:56;11.17;;;4.07;;
20956;SDS011;10637;47.970;7.830;2023-04-24T08:40:58;12.17;;;4.47;;
20956;SDS011;10637;47.970;7.830;2023-04-24T08:46:01;9.50;;;4.13;;
20956;SDS011;10637;47.970;7.830;2023-04-24T08:51:07;14.63;;;4.00;;
20956;SDS011;10637;47.970;7.830;2023-04-24T08:56:09;9.90;;;3.40;;
20956;SDS011;10637;47.970;7.830;2023-04-24T09:01:13;8.20;;;3.10;;
20956;SDS011;10637;47.970;7.830;2023-04-24T09:06:16;8.50;;;3.10;;
20956;SDS011;10637;47.970;7.830;2023-04-24T09:11:20;8.00;;;3.07;;
20956;SDS011;10637;47.970;7.830;2023-04-24T09:16:24;7.83;;;3.00;;
20956;SDS011;10637;47.970;7.830;2023-04-24T09:21:31;7.97;;;3.00;;
20956;SDS011;10637;47.970;7.830;2023-04-24T09:26:36;8.50;;;3.10;;
20956;SDS011;10637;47.970;7.830;2023-04-24T09:31:38;9.57;;;2.90;;
20956;SDS011;10637;47.970;7.830;2023-04-24T09:36:41;9.80;;;2.70;;
20956;SDS011;10637;47.970;7.830;2023-04-24T09:41:44;9.90;;;3.20;;
20956;SDS011;10637;47.970;7.830;2023-04-24T09:46:51;9.67;;;3.07;;
20956;SDS011;10637;47.970;7.830;2023-04-24T09:52:08;9.87;;;2.77;;
20956;SDS011;10637;47.970;7.830;2023-04-24T09:57:11;9.23;;;3.07;;
20956;SDS011;10637;47.970;7.830;2023-04-24T10:02:19;7.90;;;2.53;;
20956;SDS011;10637;47.970;7.830;2023-04-24T10:07:21;5.60;;;2.33;;
20956;SDS011;10637;47.970;7.830;2023-04-24T10:12:26;7.40;;;2.30;;
20956;SDS011;10637;47.970;7.830;2023-04-24T10:17:30;7.90;;;2.77;;
20956;SDS011;10637;47.970;7.830;2023-04-24T10:22:32;6.33;;;2.47;;
20956;SDS011;10637;47.970;7.830;2023-04-24T10:27:34;6.80;;;2.50;;
20956;SDS011;10637;47.970;7.830;2023-04-24T10:32:38;6.57;;;2.30;;
20956;SDS011;10637;47.970;7.830;2023-04-24T10:37:44;7.93;;;2.40;;
20956;SDS011;10637;47.970;7.830;2023-04-24T10:42:47;6.63;;;2.30;;
20956;SDS011;10637;47.970;7.830;2023-04-24T10:47:59;13.57;;;5.63;;
20956;SDS011;10637;47.970;7.830;2023-04-24T10:53:20;9.67;;;4.00;;
20956;SDS011;10637;47.970;7.830;2023-04-24T10:58:50;9.60;;;2.87;;
20956;SDS011;10637;47.970;7.830;2023-04-24T11:03:53;8.13;;;2.93;;
20956;SDS011;10637;47.970;7.830;2023-04-24T11:09:04;9.30;;;3.57;;
20956;SDS011;10637;47.970;7.830;2023-04-24T11:14:10;7.07;;;2.63;;
20956;SDS011;10637;47.970;7.830;2023-04-24T11:24:22;7.40;;;2.37;;
20956;SDS011;10637;47.970;7.830;2023-04-24T11:35:00;7.77;;;2.80;;
20956;SDS011;10637;47.970;7.830;2023-04-24T11:40:04;9.57;;;2.97;;
20956;SDS011;10637;47.970;7.830;2023-04-24T11:45:10;10.03;;;3.33;;
20956;SDS011;10637;47.970;7.830;2023-04-24T11:50:15;7.87;;;2.90;;
20956;SDS011;10637;47.970;7.830;2023-04-24T12:00:21;9.27;;;3.10;;
20956;SDS011;10637;47.970;7.830;2023-04-24T12:05:32;7.10;;;2.73;;
20956;SDS011;10637;47.970;7.830;2023-04-24T12:10:36;7.07;;;2.80;;
20956;SDS011;10637;47.970;7.830;2023-04-24T12:15:39;9.67;;;3.30;;
20956;SDS011;10637;47.970;7.830;2023-04-24T12:20:41;6.87;;;3.07;;
20956;SDS011;10637;47.970;7.830;2023-04-24T12:25:43;10.33;;;3.07;;
20956;SDS011;10637;47.970;7.830;2023-04-24T12:30:48;8.60;;;3.20;;
20956;SDS011;10637;47.970;7.830;2023-04-24T12:35:51;10.37;;;3.00;;
20956;SDS011;10637;47.970;7.830;2023-04-24T12:41:03;11.57;;;3.37;;
20956;SDS011;10637;47.970;7.830;2023-04-24T12:46:10;6.63;;;2.70;;
20956;SDS011;10637;47.970;7.830;2023-04-24T12:51:12;12.07;;;3.50;;
20956;SDS011;10637;47.970;7.830;2023-04-24T12:56:14;8.93;;;3.17;;
20956;SDS011;10637;47.970;7.830;2023-04-24T13:01:15;10.07;;;3.10;;
20956;SDS011;10637;47.970;7.830;2023-04-24T13:06:17;11.67;;;3.30;;
20956;SDS011;10637;47.970;7.830;2023-04-24T13:11:19;8.50;;;2.97;;
20956;SDS011;10637;47.970;7.830;2023-04-24T13:16:22;7.63;;;3.10;;
20956;SDS011;10637;47.970;7.830;2023-04-24T13:21:24;9.30;;;3.60;;
20956;SDS011;10637;47.970;7.830;2023-04-24T13:26:27;8.30;;;3.00;;
20956;SDS011;10637;47.970;7.830;2023-04-24T13:31:29;11.73;;;3.17;;
20956;SDS011;10637;47.970;7.830;2023-04-24T13:36:31;8.33;;;3.20;;
20956;SDS011;10637;47.970;7.830;2023-04-24T13:41:33;12.97;;;3.40;;
20956;SDS011;10637;47.970;7.830;2023-04-24T13:46:35;8.73;;;3.03;;
20956;SDS011;10637;47.970;7.830;2023-04-24T13:51:37;7.73;;;3.20;;
20956;SDS011;10637;47.970;7.830;2023-04-24T13:56:39;9.03;;;3.37;;
20956;SDS011;10637;47.970;7.830;2023-04-24T14:01:41;9.43;;;3.40;;
20956;SDS011;10637;47.970;7.830;2023-04-24T14:06:43;8.80;;;2.93;;
20956;SDS011;10637;47.970;7.830;2023-04-24T14:11:45;8.90;;;3.10;;
20956;SDS011;10637;47.970;7.830;2023-04-24T14:16:47;7.40;;;3.07;;
20956;SDS011;10637;47.970;7.830;2023-04-24T14:21:49;9.27;;;3.53;;
20956;SDS011;10637;47.970;7.830;2023-04-24T14:26:51;10.23;;;3.10;;
20956;SDS011;10637;47.970;7.830;2023-04-24T14:31:52;8.80;;;3.03;;
20956;SDS011;10637;47.970;7.830;2023-04-24T14:36:54;8.67;;;3.63;;
20956;SDS011;10637;47.970;7.830;2023-04-24T14:41:56;8.47;;;3.10;;
20956;SDS011;10637;47.970;7.830;2023-04-24T14:46:58;7.70;;;3.40;;
20956;SDS011;10637;47.970;7.830;2023-04-24T14:52:00;8.20;;;3.20;;
20956;SDS011;10637;47.970;7.830;2023-04-24T14:57:04;9.73;;;3.87;;
20956;SDS011;10637;47.970;7.830;2023-04-24T15:02:06;9.27;;;3.50;;
20956;SDS011;10637;47.970;7.830;2023-04-24T15:07:17;9.07;;;3.60;;
20956;SDS011;10637;47.970;7.830;2023-04-24T15:12:19;8.77;;;3.30;;
20956;SDS011;10637;47.970;7.830;2023-04-24T15:17:20;10.53;;;3.97;;
20956;SDS011;10637;47.970;7.830;2023-04-24T15:22:22;9.67;;;3.73;;
20956;SDS011;10637;47.970;7.830;2023-04-24T15:27:24;9.33;;;3.50;;
20956;SDS011;10637;47.970;7.830;2023-04-24T15:32:26;9.43;;;3.87;;
20956;SDS011;10637;47.970;7.830;2023-04-24T15:37:28;11.33;;;3.67;;
20956;SDS011;10637;47.970;7.830;2023-04-24T15:42:29;9.20;;;3.53;;
20956;SDS011;10637;47.970;7.830;2023-04-24T15:47:32;10.37;;;5.03;;
20956;SDS011;10637;47.970;7.830;2023-04-24T15:52:34;10.47;;;4.27;;
20956;SDS011;10637;47.970;7.830;2023-04-24T15:57:36;8.50;;;4.20;;
20956;SDS011;10637;47.970;7.830;2023-04-24T16:02:38;11.20;;;4.47;;
20956;SDS011;10637;47.970;7.830;2023-04-24T16:07:40;13.17;;;4.10;;
20956;SDS011;10637;47.970;7.830;2023-04-24T16:12:42;10.20;;;3.60;;
20956;SDS011;10637;47.970;7.830;2023-04-24T16:17:44;11.33;;;4.53;;
20956;SDS011;10637;47.970;7.830;2023-04-24T16:22:46;11.33;;;4.20;;
20956;SDS011;10637;47.970;7.830;2023-04-24T16:27:48;10.07;;;4.00;;
20956;SDS011;10637;47.970;7.830;2023-04-24T16:32:51;11.93;;;4.17;;
20956;SDS011;10637;47.970;7.830;2023-04-24T16:37:53;10.30;;;4.03;;
20956;SDS011;10637;47.970;7.830;2023-04-24T16:42:55;11.50;;;3.93;;
20956;SDS011;10637;47.970;7.830;2023-04-24T16:47:56;9.83;;;3.50;;
20956;SDS011;10637;47.970;7.830;2023-04-24T16:52:59;11.13;;;3.97;;
20956;SDS011;10637;47.970;7.830;2023-04-24T16:58:00;11.67;;;4.00;;
20956;SDS011;10637;47.970;7.830;2023-04-24T17:03:02;11.00;;;3.73;;
20956;SDS011;10637;47.970;7.830;2023-04-24T17:08:04;11.27;;;4.07;;
20956;SDS011;10637;47.970;7.830;2023-04-24T17:13:06;11.30;;;4.00;;
20956;SDS011;10637;47.970;7.830;2023-04-24T17:18:08;11.57;;;4.10;;
20956;SDS011;10637;47.970;7.830;2023-04-24T17:23:11;9.57;;;3.60;;
20956;SDS011;10637;47.970;7.830;2023-04-24T17:28:14;11.53;;;4.00;;
20956;SDS011;10637;47.970;7.830;2023-04-24T17:33:31;11.23;;;3.90;;
20956;SDS011;10637;47.970;7.830;2023-04-24T17:38:33;11.90;;;4.00;;
20956;SDS011;10637;47.970;7.830;2023-04-24T17:43:34;11.43;;;4.10;;
20956;SDS011;10637;47.970;7.830;2023-04-24T17:48:36;11.27;;;3.83;;
20956;SDS011;10637;47.970;7.830;2023-04-24T17:53:38;9.63;;;3.83;;
20956;SDS011;10637;47.970;7.830;2023-04-24T17:58:41;11.10;;;4.20;;
20956;SDS011;10637;47.970;7.830;2023-04-24T18:03:42;15.47;;;4.90;;
20956;SDS011;10637;47.970;7.830;2023-04-24T18:08:45;11.90;;;5.00;;
20956;SDS011;10637;47.970;7.830;2023-04-24T18:13:47;9.23;;;4.00;;
20956;SDS011;10637;47.970;7.830;2023-04-24T18:18:49;11.10;;;4.00;;
20956;SDS011;10637;47.970;7.830;2023-04-24T18:23:51;10.23;;;4.53;;
20956;SDS011;10637;47.970;7.830;2023-04-24T18:28:54;9.27;;;4.13;;
20956;SDS011;10637;47.970;7.830;2023-04-24T18:33:56;9.10;;;3.70;;
20956;SDS011;10637;47.970;7.830;2023-04-24T18:38:58;10.17;;;4.13;;
20956;SDS011;10637;47.970;7.830;2023-04-24T18:44:00;11.70;;;4.77;;
20956;SDS011;10637;47.970;7.830;2023-04-24T18:49:02;12.67;;;5.07;;
20956;SDS011;10637;47.970;7.830;2023-04-24T18:54:04;16.00;;;5.47;;
20956;SDS011;10637;47.970;7.830;2023-04-24T18:59:06;10.43;;;4.13;;
20956;SDS011;10637;47.970;7.830;2023-04-24T19:04:08;10.63;;;3.90;;
20956;SDS011;10637;47.970;7.830;2023-04-24T19:09:11;13.47;;;4.67;;
20956;SDS011;10637;47.970;7.830;2023-04-24T19:14:12;11.70;;;4.17;;
20956;SDS011;10637;47.970;7.830;2023-04-24T19:19:16;13.60;;;4.53;;
20956;SDS011;10637;47.970;7.830;2023-04-24T19:24:18;13.47;;;5.00;;
20956;SDS011;10637;47.970;7.830;2023-04-24T19:29:21;9.67;;;4.37;;
20956;SDS011;10637;47.970;7.830;2023-04-24T19:34:23;11.30;;;4.53;;
20956;SDS011;10637;47.970;7.830;2023-04-24T19:39:25;10.37;;;4.60;;
20956;SDS011;10637;47.970;7.830;2023-04-24T19:44:27;10.83;;;4.53;;
20956;SDS011;10637;47.970;7.830;2023-04-24T19:49:29;9.83;;;4.43;;
20956;SDS011;10637;47.970;7.830;2023-04-24T19:54:31;19.17;;;5.40;;
20956;SDS011;10637;47.970;7.830;2023-04-24T19:59:32;11.50;;;4.67;;
20956;SDS011;10637;47.970;7.830;2023-04-24T20:04:34;13.27;;;4.83;;
20956;SDS011;10637;47.970;7.830;2023-04-24T20:09:36;12.87;;;4.70;;
20956;SDS011;10637;47.970;7.830;2023-04-24T20:14:38;12.57;;;4.63;;
20956;SDS011;10637;47.970;7.830;2023-04-24T20:19:40;14.73;;;5.23;;
20956;SDS011;10637;47.970;7.830;2023-04-24T20:24:42;11.33;;;4.90;;
20956;SDS011;10637;47.970;7.830;2023-04-24T20:29:46;14.33;;;4.80;;
20956;SDS011;10637;47.970;7.830;2023-04-24T20:34:47;10.03;;;4.37;;
20956;SDS011;10637;47.970;7.830;2023-04-24T20:39:49;11.73;;;4.63;;
20956;SDS011;10637;47.970;7.830;2023-04-24T20:44:52;10.67;;;4.43;;
20956;SDS011;10637;47.970;7.830;2023-04-24T20:49:53;11.70;;;4.80;;
20956;SDS011;10637;47.970;7.830;2023-04-24T20:54:55;9.93;;;4.50;;
20956;SDS011;10637;47.970;7.830;2023-04-24T20:59:57;10.50;;;4.70;;
20956;SDS011;10637;47.970;7.830;2023-04-24T21:04:59;11.37;;;4.53;;
20956;SDS011;10637;47.970;7.830;2023-04-24T21:10:00;12.30;;;5.10;;
20956;SDS011;10637;47.970;7.830;2023-04-24T21:15:02;13.20;;;4.50;;
20956;SDS011;10637;47.970;7.830;2023-04-24T21:20:05;11.43;;;4.87;;
20956;SDS011;10637;47.970;7.830;2023-04-24T21:25:08;16.57;;;4.90;;
20956;SDS011;10637;47.970;7.830;2023-04-24T21:30:10;9.10;;;4.23;;
20956;SDS011;10637;47.970;7.830;2023-04-24T21:35:12;15.50;;;5.27;;
20956;SDS011;10637;47.970;7.830;2023-04-24T21:40:14;12.77;;;5.03;;
20956;SDS011;10637;47.970;7.830;2023-04-24T21:45:16;11.87;;;4.40;;
20956;SDS011;10637;47.970;7.830;2023-04-24T21:50:17;11.17;;;4.63;;
20956;SDS011;10637;47.970;7.830;2023-04-24T21:55:19;12.77;;;4.87;;
20956;SDS011;10637;47.970;7.830;2023-04-24T22:00:21;11.00;;;5.13;;
20956;SDS011;10637;47.970;7.830;2023-04-24T22:05:24;13.30;;;4.80;;
20956;SDS011;10637;47.970;7.830;2023-04-24T22:10:26;12.63;;;5.10;;
20956;SDS011;10637;47.970;7.830;2023-04-24T22:15:28;11.40;;;4.70;;
20956;SDS011;10637;47.970;7.830;2023-04-24T22:20:31;13.03;;;5.33;;
20956;SDS011;10637;47.970;7.830;2023-04-24T22:25:33;13.77;;;5.27;;
20956;SDS011;10637;47.970;7.830;2023-04-24T22:30:35;11.57;;;4.40;;
20956;SDS011;10637;47.970;7.830;2023-04-24T22:35:37;12.17;;;4.40;;
20956;SDS011;10637;47.970;7.830;2023-04-24T22:40:39;11.77;;;4.23;;
20956;SDS011;10637;47.970;7.830;2023-04-24T22:45:42;10.13;;;3.90;;
20956;SDS011;10637;47.970;7.830;2023-04-24T22:50:45;12.97;;;4.17;;
20956;SDS011;10637;47.970;7.830;2023-04-24T22:55:47;13.23;;;4.00;;
20956;SDS011;10637;47.970;7.830;2023-04-24T23:00:48;11.37;;;4.10;;
20956;SDS011;10637;47.970;7.830;2023-04-24T23:05:51;11.10;;;3.90;;
20956;SDS011;10637;47.970;7.830;2023-04-24T23:10:52;10.80;;;4.10;;
20956;SDS011;10637;47.970;7.830;2023-04-24T23:15:54;10.27;;;3.87;;
20956;SDS011;10637;47.970;7.830;2023-04-24T23:20:56;11.27;;;3.80;;
20956;SDS011;10637;47.970;7.830;2023-04-24T23:25:58;10.73;;;3.80;;
20956;SDS011;10637;47.970;7.830;2023-04-24T23:31:01;11.50;;;4.33;;
20956;SDS011;10637;47.970;7.830;2023-04-24T23:36:02;12.13;;;4.57;;
20956;SDS011;10637;47.970;7.830;2023-04-24T23:41:05;12.83;;;4.07;;
20956;SDS011;10637;47.970;7.830;2023-04-24T23:46:07;11.83;;;4.27;;
20956;SDS011;10637;47.970;7.830;2023-04-24T23:51:08;10.33;;;4.90;;
20956;SDS011;10637;47.970;7.830;2023-04-24T23:56:10;13.70;;;5.10;;
